Have a Safe July 4th! 

Flight Track Log - Related Links

Times and Time Zones

All times are in EDT time to prevent confusion due to time zone crossing. See the EJA831 flight status page for this flight to view local times or setup timezone preferences in your user account.

Time Position Orientation Groundspeed Altitude Reporting Facility
EDT Latitude Longitude Course Direction KTS MPH feet Rate Location/Type
Sun 04:38:57 PM 40.5625 -80.1431 43° Northeast 275 316 5,200  Level Cleveland Center
Sun 04:39:57 PM 40.6250 -80.1564 351° North 274 315 10,800 4,350 Climbing Cleveland Center
Sun 04:40:57 PM 40.6981 -80.1778 347° North 274 315 13,900 1,600 Climbing Cleveland Center
Sun 04:41:57 PM 40.7900 -80.2019 349° North 296 341 14,000 50 Climbing Cleveland Center
Sun 04:42:57 PM 40.8711 -80.1575 23° Northeast 301 346 14,000 800 Level Cleveland Center
Sun 04:43:00 PM 40.9972 -79.9934 42° Northeast  Level FlightAware Approximate
Sun 04:43:57 PM 40.9353 -80.0803 42° Northeast 290 334 15,600  Level Cleveland Center
Sun 04:44:00 PM 41.0673 -79.9076 43° Northeast  Level FlightAware Approximate
Sun 04:44:57 PM 41.0119 -79.9886 42° Northeast 323 372 17,700  Level Cleveland Center
Sun 04:45:57 PM 41.0969 -79.8969 39° Northeast 361 415 19,800 1,650 Climbing Cleveland Center
Sun 04:46:57 PM 41.1819 -79.8078 38° Northeast 378 435 21,000 600 Climbing Cleveland Center
Sun 04:47:57 PM 41.2731 -79.7128 38° Northeast 401 461 21,000  Level Cleveland Center
Sun 04:48:57 PM 41.3597 -79.6231 38° Northeast 401 461 21,000  Level Cleveland Center
Sun 04:49:57 PM 41.4444 -79.5333 38° Northeast 395 455 21,000  Level Cleveland Center
Sun 04:50:57 PM 41.5311 -79.4375 40° Northeast 395 455 21,000  Level Cleveland Center
Sun 04:51:57 PM 41.5881 -79.3061 60° Northeast 395 455 21,000  Level Cleveland Center
Sun 04:52:57 PM 41.6722 -79.1850 47° Northeast 401 461 21,000  Level Cleveland Center
Sun 04:53:57 PM 41.7542 -79.0856 42° Northeast 401 461 21,000  Level Cleveland Center
Sun 04:54:57 PM 41.8342 -78.9864 43° Northeast 396 456 21,000  Level Cleveland Center
Sun 04:55:57 PM 41.9058 -78.8953 43° Northeast 390 449 21,000  Level Cleveland Center
Sun 04:56:57 PM 41.9942 -78.8064 37° Northeast 385 443 21,000  Level Cleveland Center
Sun 04:57:57 PM 42.0806 -78.7256 35° Northeast 385 443 21,000  Level Cleveland Center
Sun 04:58:57 PM 42.1667 -78.6389 37° Northeast 385 443 21,000  Level Cleveland Center
Sun 04:59:57 PM 42.2650 -78.5406 36° Northeast 385 443 21,000 -850 Level Cleveland Center
Sun 05:00:57 PM 42.3511 -78.4564 36° Northeast 385 443 19,300 -1,850 Descending Cleveland Center
Sun 05:01:57 PM 42.4408 -78.3633 37° Northeast 390 449 17,300 -1,957 Descending Cleveland Center
Sun 05:02:29 PM 42.4858 -78.3194 36° Northeast 375 432 16,300 -1,900 Descending Cleveland Center
Sun 05:02:57 PM 42.5247 -78.2786 38° Northeast 390 449 15,400 -1,855 Descending Cleveland Center
Sun 05:03:24 PM 42.5594 -78.2464 34° Northeast 369 425 14,600 -1,900 Descending Cleveland Center
Sun 05:03:57 PM 42.6086 -78.1967 37° Northeast 380 437 13,500 -1,900 Descending Cleveland Center
Sun 05:04:24 PM 42.6433 -78.1614 37° Northeast 364 419 12,700 -1,400 Descending Cleveland Center
Sun 05:04:57 PM 42.6781 -78.1261 37° Northeast 370 426 12,100 -1,672 Descending Cleveland Center
Sun 05:05:25 PM 42.7103 -78.0825 45° Northeast 311 358 11,000 -1,700 Descending Cleveland Center
Sun 05:05:57 PM 42.7408 -78.0444 42° Northeast 340 391 10,400 -1,545 Descending Cleveland Center
Sun 05:06:31 PM 42.7750 -77.9950 47° Northeast 295 339 9,300 -1,700 Descending Cleveland Center
Sun 05:06:57 PM 42.8017 -77.9656 39° Northeast 304 350 8,700 -1,636 Descending Cleveland Center
Sun 05:07:26 PM 42.8278 -77.9219 51° Northeast 297 342 7,800 -1,800 Descending Cleveland Center
Sun 05:07:57 PM 42.8600 -77.8811 43° Northeast 284 327 6,900 -1,574 Descending Cleveland Center
Sun 05:08:27 PM 42.8822 -77.8461 49° Northeast 286 329 6,200 -900 Descending Cleveland Center
Sun 05:08:57 PM 42.9167 -77.8019 43° Northeast 284 327 6,000 -200 Descending Cleveland Center
Sun 05:09:27 PM 42.9386 -77.7669 49° Northeast 287 330 6,000  Level Cleveland Center
Sun 05:09:57 PM 42.9650 -77.7317 44° Northeast 278 320 6,000 -733 Level Cleveland Center
Sun 05:10:57 PM 43.0300 -77.6719 34° Northeast 278 320 4,900 -1,582 Descending Cleveland Center
Sun 05:11:28 PM 43.0775 -77.6556 14° North 280 322 3,600 -1,800 Descending Cleveland Center
Sun 05:11:57 PM 43.1000 -77.6375 30° Northeast 268 308 3,100 -1,574 Descending Cleveland Center
Sun 05:12:29 PM 43.1353 -77.6272 12° North 205 236 2,000 -1,455 Descending Cleveland Center
Sun 05:13:36 PM 43.1261 -77.6731 255° West 102 117 700 -1,164 Descending Cleveland Center
Sun 05:15:00 PM 43.1191 -77.6719 173° South  Level Estimated
Sun 05:22:00 PM 43.1191 -77.6719 14° North  Level Estimated

Login

Don't have an account? Register now (free) for customized features, flight alerts, and more!